createdAt,value
2022-11-04T00:02:17.314Z,12.06
2022-11-04T00:04:46.846Z,12.12
2022-11-04T00:07:28.515Z,12.11
2022-11-04T00:09:57.128Z,12.13
2022-11-04T00:12:27.039Z,12.15
2022-11-04T00:15:15.261Z,12.20
2022-11-04T00:17:42.140Z,12.26
2022-11-04T00:20:30.081Z,12.23
2022-11-04T00:23:30.389Z,12.31
2022-11-04T00:26:17.228Z,12.34
2022-11-04T00:28:45.333Z,12.36
2022-11-04T00:31:34.217Z,12.35
2022-11-04T00:34:02.137Z,12.38
2022-11-04T00:36:31.220Z,12.40
2022-11-04T00:38:59.487Z,12.43
2022-11-04T00:41:27.822Z,12.48
2022-11-04T00:43:57.498Z,12.50
2022-11-04T00:46:25.742Z,12.48
2022-11-04T00:48:56.711Z,12.50
2022-11-04T00:51:25.280Z,12.51
2022-11-04T00:53:54.812Z,12.50
2022-11-04T00:56:23.055Z,12.49
2022-11-04T00:58:51.086Z,12.47
2022-11-04T01:01:19.756Z,12.30
2022-11-04T01:03:49.177Z,12.45
2022-11-04T01:06:27.825Z,12.36
2022-11-04T01:09:01.780Z,12.11
2022-11-04T01:11:31.352Z,12.15
2022-11-04T01:13:59.444Z,12.03
2022-11-04T01:19:01.089Z,11.80
2022-11-04T01:21:29.365Z,11.72
2022-11-04T01:23:57.661Z,11.73
2022-11-04T01:26:30.131Z,11.71
2022-11-04T01:28:58.918Z,11.73
2022-11-04T01:31:28.542Z,11.76
2022-11-04T01:34:07.759Z,11.79
2022-11-04T01:36:52.171Z,11.84
2022-11-04T01:39:19.976Z,11.85
2022-11-04T01:42:07.696Z,11.82
2022-11-04T01:45:02.538Z,11.84
2022-11-04T01:47:33.554Z,11.81
2022-11-04T01:50:05.984Z,11.81
2022-11-04T01:52:37.966Z,11.83
2022-11-04T01:55:14.596Z,11.83
2022-11-04T01:57:48.045Z,11.83
2022-11-04T02:00:17.246Z,11.82
2022-11-04T02:03:04.404Z,11.83
2022-11-04T02:05:32.333Z,11.85
2022-11-04T02:08:02.694Z,11.85
2022-11-04T02:10:37.585Z,11.85
2022-11-04T02:13:13.545Z,11.87
2022-11-04T02:15:53.554Z,11.91
2022-11-04T02:18:37.417Z,11.93
2022-11-04T02:21:36.788Z,11.92
2022-11-04T02:24:32.873Z,11.89
2022-11-04T02:27:28.329Z,11.89
2022-11-04T02:30:17.021Z,11.89
2022-11-04T02:33:09.880Z,11.94
2022-11-04T02:35:48.721Z,11.96
2022-11-04T02:38:31.670Z,12.04
2022-11-04T02:41:05.566Z,12.06
2022-11-04T02:44:03.487Z,12.09
2022-11-04T02:46:38.986Z,12.11
2022-11-04T02:49:13.246Z,12.10
2022-11-04T02:51:49.313Z,12.16
2022-11-04T02:54:23.310Z,12.19
2022-11-04T02:56:54.218Z,12.18
2022-11-04T02:59:36.293Z,12.19
2022-11-04T03:02:10.191Z,12.17
2022-11-04T03:04:44.916Z,12.11
2022-11-04T03:07:16.300Z,12.16
2022-11-04T03:09:50.590Z,12.14
2022-11-04T03:12:20.635Z,12.10
2022-11-04T03:14:53.790Z,12.06
2022-11-04T03:17:34.993Z,12.03
2022-11-04T03:20:06.887Z,11.99
2022-11-04T03:22:36.957Z,11.88
2022-11-04T03:25:06.473Z,11.97
2022-11-04T03:27:40.144Z,11.96
2022-11-04T03:30:13.264Z,11.95
2022-11-04T03:32:52.722Z,11.93
2022-11-04T03:35:21.194Z,11.90
2022-11-04T03:37:58.031Z,11.84
2022-11-04T03:40:27.389Z,11.69
2022-11-04T03:43:06.914Z,11.79
2022-11-04T03:45:34.956Z,11.72
2022-11-04T03:48:07.831Z,11.67
2022-11-04T03:50:42.509Z,11.63
2022-11-04T03:53:13.311Z,11.60
2022-11-04T03:56:08.245Z,11.58
2022-11-04T03:58:59.634Z,11.52
2022-11-04T04:01:37.053Z,11.54
2022-11-04T04:04:14.297Z,11.54
2022-11-04T04:06:44.442Z,11.56
2022-11-04T04:09:19.025Z,11.56
2022-11-04T04:11:57.077Z,11.56
2022-11-04T04:14:48.469Z,11.52
2022-11-04T04:17:20.797Z,11.54
2022-11-04T04:19:55.131Z,11.53
2022-11-04T04:22:26.132Z,11.51
2022-11-04T04:25:15.247Z,11.47
2022-11-04T04:27:45.148Z,11.47
2022-11-04T04:30:15.488Z,11.47
2022-11-04T04:32:46.022Z,11.45
2022-11-04T04:35:38.241Z,11.48
2022-11-04T04:38:27.318Z,11.50
2022-11-04T04:41:18.936Z,11.51
2022-11-04T04:44:03.961Z,11.51
2022-11-04T04:46:33.235Z,11.50
2022-11-04T04:49:06.154Z,11.50
2022-11-04T04:51:40.274Z,11.51
2022-11-04T04:54:08.372Z,11.34
2022-11-04T04:56:36.211Z,11.52
2022-11-04T04:59:04.512Z,11.48
2022-11-04T05:01:32.550Z,11.41
2022-11-04T05:04:00.428Z,11.35
2022-11-04T05:06:30.516Z,11.31
2022-11-04T05:08:59.806Z,11.27
2022-11-04T05:11:30.510Z,11.18
2022-11-04T05:13:58.337Z,11.18
2022-11-04T05:16:26.358Z,11.13
2022-11-04T05:18:55.122Z,11.11
2022-11-04T05:21:23.082Z,11.10
2022-11-04T05:23:50.920Z,11.08
2022-11-04T05:26:20.774Z,10.94
2022-11-04T05:28:48.715Z,10.98
2022-11-04T05:31:18.530Z,10.85
2022-11-04T05:33:46.477Z,10.86
2022-11-04T05:36:16.018Z,10.82
2022-11-04T05:38:44.842Z,10.75
2022-11-04T05:41:25.665Z,10.70
2022-11-04T05:43:55.823Z,10.66
2022-11-04T05:46:24.135Z,10.60
2022-11-04T05:48:52.492Z,10.59
2022-11-04T05:51:22.365Z,10.40
2022-11-04T05:53:50.263Z,10.41
2022-11-04T05:56:21.360Z,10.55
2022-11-04T05:58:50.576Z,10.58
2022-11-04T06:01:28.785Z,10.58
2022-11-04T06:03:57.298Z,10.42
2022-11-04T06:06:27.488Z,10.54
2022-11-04T06:09:20.866Z,10.56
2022-11-04T06:11:48.740Z,10.57
2022-11-04T06:14:18.860Z,10.55
2022-11-04T06:16:48.414Z,10.56
2022-11-04T06:19:16.490Z,10.57
2022-11-04T06:21:44.545Z,10.56
2022-11-04T06:24:12.820Z,10.55
2022-11-04T06:26:41.201Z,10.55
2022-11-04T06:29:09.946Z,10.56
2022-11-04T06:31:37.723Z,10.62
2022-11-04T06:34:07.002Z,10.73
2022-11-04T06:36:34.999Z,10.84
2022-11-04T06:39:04.955Z,10.94
2022-11-04T06:41:33.259Z,11.02
2022-11-04T06:44:03.006Z,11.07
2022-11-04T06:46:34.949Z,11.07
2022-11-04T06:49:02.925Z,11.17
2022-11-04T06:51:32.437Z,11.21
2022-11-04T06:54:00.216Z,11.21
2022-11-04T06:56:28.292Z,11.24
2022-11-04T06:58:56.873Z,11.28
2022-11-04T07:01:26.964Z,11.25
2022-11-04T07:04:02.047Z,11.33
2022-11-04T07:06:31.328Z,11.34
2022-11-04T07:09:02.636Z,11.37
2022-11-04T07:11:33.259Z,11.37
2022-11-04T07:14:01.170Z,11.37
2022-11-04T07:16:28.971Z,11.41
2022-11-04T07:18:56.999Z,11.45
2022-11-04T07:21:24.893Z,11.47
2022-11-04T07:23:52.907Z,11.51
2022-11-04T07:26:22.090Z,11.55
2022-11-04T07:28:50.184Z,11.42
2022-11-04T07:31:19.545Z,11.57
2022-11-04T07:33:50.145Z,11.57
2022-11-04T07:36:19.017Z,11.61
2022-11-04T07:38:49.934Z,11.67
2022-11-04T07:41:18.566Z,11.62
2022-11-04T07:43:51.443Z,11.69
2022-11-04T07:46:21.895Z,11.70
2022-11-04T07:48:49.719Z,11.71
2022-11-04T07:51:20.949Z,11.72
2022-11-04T07:53:48.801Z,11.70
2022-11-04T07:56:16.689Z,11.70
2022-11-04T07:58:44.537Z,11.71
2022-11-04T08:01:16.406Z,11.68
2022-11-04T08:03:44.699Z,11.73
2022-11-04T08:06:15.457Z,11.76
2022-11-04T08:08:46.247Z,11.77
2022-11-04T08:11:17.978Z,11.81
2022-11-04T08:13:47.184Z,11.72
2022-11-04T08:16:18.399Z,11.76
2022-11-04T08:18:48.338Z,11.78
2022-11-04T08:21:19.448Z,11.77
2022-11-04T08:23:48.218Z,11.71
2022-11-04T08:26:18.732Z,11.73
2022-11-04T08:28:47.668Z,11.73
2022-11-04T08:31:21.723Z,11.75
2022-11-04T08:33:49.517Z,11.59
2022-11-04T08:36:22.690Z,11.83
2022-11-04T08:38:50.447Z,11.80
2022-11-04T08:41:24.438Z,11.81
2022-11-04T08:43:56.803Z,11.75
2022-11-04T08:46:26.020Z,11.86
2022-11-04T08:48:54.147Z,11.89
2022-11-04T08:51:24.197Z,11.92
2022-11-04T08:53:52.265Z,12.00
2022-11-04T08:56:21.563Z,12.02
2022-11-04T08:58:50.390Z,12.08
2022-11-04T09:01:21.288Z,12.09
2022-11-04T09:03:56.514Z,12.16
2022-11-04T09:06:27.935Z,12.19
2022-11-04T09:08:58.303Z,11.99
2022-11-04T09:11:26.129Z,12.12
2022-11-04T09:13:59.496Z,12.03
2022-11-04T09:16:29.113Z,11.95
2022-11-04T09:19:01.010Z,11.91
2022-11-04T09:21:29.824Z,11.91
2022-11-04T09:23:58.270Z,11.90
2022-11-04T09:26:29.213Z,11.96
2022-11-04T09:28:58.344Z,12.19
2022-11-04T09:31:32.214Z,12.18
2022-11-04T09:34:01.472Z,12.16
2022-11-04T09:36:32.314Z,12.15
2022-11-04T09:39:00.147Z,12.10
2022-11-04T09:42:06.545Z,12.21
2022-11-04T09:45:14.893Z,12.27
2022-11-04T09:47:35.997Z,12.25
2022-11-04T09:50:11.332Z,12.27
2022-11-04T09:52:45.334Z,12.28
2022-11-04T09:55:22.210Z,12.26
2022-11-04T09:57:55.877Z,12.28
2022-11-04T10:00:33.656Z,12.29
2022-11-04T10:03:21.863Z,12.30
2022-11-04T10:06:14.949Z,12.30
2022-11-04T10:09:10.098Z,12.44
2022-11-04T10:11:53.362Z,12.48
2022-11-04T10:14:41.850Z,12.44
2022-11-04T10:17:35.390Z,12.43
2022-11-04T10:20:21.064Z,12.44
2022-11-04T10:23:03.365Z,12.40
2022-11-04T10:25:46.864Z,12.28
2022-11-04T10:28:26.271Z,12.22
2022-11-04T10:30:55.905Z,12.20
2022-11-04T10:33:30.195Z,12.28
2022-11-04T10:35:59.561Z,12.22
2022-11-04T10:38:34.835Z,12.21
2022-11-04T10:41:07.236Z,12.29
2022-11-04T10:43:38.532Z,12.32
2022-11-04T10:46:27.994Z,12.36
2022-11-04T10:49:06.553Z,12.36
2022-11-04T10:51:34.376Z,12.35
2022-11-04T10:54:11.279Z,12.54
2022-11-04T10:56:44.155Z,12.66
2022-11-04T10:59:24.708Z,12.79
2022-11-04T11:01:54.576Z,12.82
2022-11-04T11:04:41.372Z,12.89
2022-11-04T11:07:11.457Z,12.88
2022-11-04T11:09:54.101Z,12.83
2022-11-04T11:12:50.184Z,12.73
2022-11-04T11:15:30.296Z,12.58
2022-11-04T11:18:02.309Z,12.49
2022-11-04T11:20:32.511Z,12.50
2022-11-04T11:23:04.873Z,12.59
2022-11-04T11:25:36.040Z,12.72
2022-11-04T11:28:07.403Z,12.80
2022-11-04T11:30:57.351Z,12.84
2022-11-04T11:33:28.062Z,12.92
2022-11-04T11:36:00.004Z,13.03
2022-11-04T11:38:29.617Z,13.06
2022-11-04T11:41:24.457Z,13.13
2022-11-04T11:43:56.342Z,13.18
2022-11-04T11:46:26.049Z,13.20
2022-11-04T11:49:00.979Z,13.25
2022-11-04T11:51:32.467Z,13.31
2022-11-04T11:54:16.556Z,13.22
2022-11-04T11:57:12.761Z,13.16
2022-11-04T12:02:46.980Z,13.16
2022-11-04T12:11:16.701Z,13.05
2022-11-04T12:13:53.686Z,13.07
2022-11-04T12:16:30.234Z,13.08
2022-11-04T12:19:14.508Z,13.06
2022-11-04T12:21:48.618Z,12.94
2022-11-04T12:24:28.645Z,12.87
2022-11-04T12:27:08.081Z,12.79
2022-11-04T12:29:54.869Z,12.82
2022-11-04T12:32:31.034Z,12.78
2022-11-04T12:35:12.180Z,12.79
2022-11-04T12:37:52.374Z,12.77
2022-11-04T12:40:30.112Z,12.79
2022-11-04T12:43:09.596Z,12.83
2022-11-04T12:45:49.705Z,12.91
2022-11-04T12:48:34.372Z,13.00
2022-11-04T12:51:09.414Z,13.04
2022-11-04T12:54:12.768Z,13.01
2022-11-04T12:56:41.656Z,13.06
2022-11-04T12:59:39.002Z,12.98
2022-11-04T13:02:18.908Z,13.18
2022-11-04T13:05:00.253Z,13.16
2022-11-04T13:07:33.012Z,13.24
2022-11-04T13:10:07.066Z,13.35
2022-11-04T13:12:40.673Z,13.35
2022-11-04T13:15:20.126Z,13.31
2022-11-04T13:17:54.103Z,13.26
2022-11-04T13:20:30.729Z,13.30
2022-11-04T13:23:04.125Z,13.31
2022-11-04T13:25:35.841Z,13.26
2022-11-04T13:28:04.972Z,13.22
2022-11-04T13:30:40.610Z,12.99
2022-11-04T13:33:22.441Z,13.18
2022-11-04T13:35:58.227Z,13.17
2022-11-04T13:38:32.803Z,13.17
2022-11-04T13:41:21.560Z,13.11
2022-11-04T13:43:54.486Z,13.01
2022-11-04T13:46:30.475Z,13.07
2022-11-04T13:49:03.876Z,12.98
2022-11-04T13:51:37.887Z,12.93
2022-11-04T13:54:07.755Z,12.74
2022-11-04T13:56:38.456Z,12.75
2022-11-04T13:59:23.584Z,12.78
2022-11-04T14:02:26.707Z,12.77
2022-11-04T14:04:57.783Z,12.74
2022-11-04T14:08:13.402Z,12.65
2022-11-04T14:10:46.695Z,12.57
2022-11-04T14:13:46.297Z,12.55
2022-11-04T14:16:44.118Z,12.55
2022-11-04T14:19:57.543Z,12.61
2022-11-04T14:22:35.289Z,12.63
2022-11-04T14:25:19.628Z,12.63
2022-11-04T14:27:49.734Z,12.55
2022-11-04T14:30:35.159Z,12.51
2022-11-04T14:33:07.694Z,12.46
2022-11-04T14:35:38.917Z,12.42
2022-11-04T14:38:30.867Z,12.42
2022-11-04T14:41:24.424Z,12.43
2022-11-04T14:43:56.730Z,12.40
2022-11-04T14:46:27.542Z,12.39
2022-11-04T14:49:01.127Z,12.42
2022-11-04T14:51:34.288Z,12.45
2022-11-04T14:54:09.223Z,12.50
2022-11-04T14:56:37.098Z,12.55
2022-11-04T14:59:06.901Z,12.59
2022-11-04T15:01:41.561Z,12.60
2022-11-04T15:04:19.254Z,12.55
2022-11-04T15:06:55.847Z,12.44
2022-11-04T15:09:27.652Z,12.43
2022-11-04T15:12:23.621Z,12.47
2022-11-04T15:14:52.494Z,12.48
2022-11-04T15:17:23.442Z,12.45
2022-11-04T15:19:54.706Z,12.37
2022-11-04T15:22:25.964Z,12.27
2022-11-04T15:24:56.758Z,12.14
2022-11-04T15:27:29.581Z,12.05
2022-11-04T15:30:00.564Z,11.96
2022-11-04T15:32:28.871Z,11.90
2022-11-04T15:34:59.589Z,11.84
2022-11-04T15:37:36.681Z,11.80
2022-11-04T15:40:08.238Z,11.75
2022-11-04T15:42:43.068Z,11.62
2022-11-04T15:45:38.546Z,11.64
2022-11-04T15:48:26.062Z,11.58
2022-11-04T15:51:06.987Z,11.53
2022-11-04T15:53:47.991Z,11.50
2022-11-04T15:56:19.000Z,11.45
2022-11-04T15:58:47.802Z,11.38
2022-11-04T16:01:16.868Z,11.32
2022-11-04T16:03:51.327Z,11.32
2022-11-04T16:06:19.261Z,11.28
2022-11-04T16:09:02.178Z,11.26
2022-11-04T16:11:31.485Z,11.21
2022-11-04T16:14:23.002Z,11.19
2022-11-04T16:16:52.867Z,11.15
2022-11-04T16:19:26.742Z,11.14
2022-11-04T16:22:00.744Z,11.12
2022-11-04T16:24:32.818Z,11.18
2022-11-04T16:27:28.608Z,11.24
2022-11-04T16:30:13.116Z,11.25
2022-11-04T16:32:42.102Z,11.26
2022-11-04T16:35:28.862Z,11.23
2022-11-04T16:37:57.309Z,11.20
2022-11-04T16:40:34.996Z,11.14
2022-11-04T16:43:04.539Z,11.07
2022-11-04T16:45:37.941Z,11.04
2022-11-04T16:48:06.471Z,10.96
2022-11-04T16:50:34.377Z,10.96
2022-11-04T16:53:03.680Z,10.91
2022-11-04T16:55:34.473Z,10.91
2022-11-04T16:58:05.802Z,10.73
2022-11-04T17:00:34.460Z,10.87
2022-11-04T17:03:05.455Z,10.85
2022-11-04T17:05:36.508Z,10.75
2022-11-04T17:08:06.206Z,10.74
2022-11-04T17:10:37.111Z,10.69
2022-11-04T17:13:06.615Z,10.65
2022-11-04T17:15:39.276Z,10.56
2022-11-04T17:18:16.329Z,10.47
2022-11-04T17:20:45.923Z,10.62
2022-11-04T17:23:15.255Z,10.59
2022-11-04T17:25:43.862Z,10.56
2022-11-04T17:28:14.032Z,10.56
2022-11-04T17:30:42.319Z,10.34
2022-11-04T17:33:13.879Z,10.49
2022-11-04T17:35:42.987Z,10.52
2022-11-04T17:38:14.662Z,10.55
2022-11-04T17:40:56.691Z,10.55
2022-11-04T17:43:43.627Z,10.50
2022-11-04T17:46:26.081Z,10.46
2022-11-04T17:48:57.406Z,10.43
2022-11-04T17:51:28.553Z,10.27
2022-11-04T17:53:56.626Z,10.35
2022-11-04T17:56:25.592Z,10.32
2022-11-04T17:59:04.029Z,10.29
2022-11-04T18:01:36.664Z,10.23
2022-11-04T18:04:07.324Z,10.18
2022-11-04T18:06:39.675Z,10.14
2022-11-04T18:09:11.103Z,10.12
2022-11-04T18:11:56.913Z,10.09
2022-11-04T18:14:28.684Z,10.04
2022-11-04T18:17:02.712Z,10.00
2022-11-04T18:19:31.668Z,9.98
2022-11-04T18:22:08.593Z,9.95
2022-11-04T18:24:36.376Z,9.88
2022-11-04T18:27:04.533Z,9.90
2022-11-04T18:29:33.665Z,9.87
2022-11-04T18:32:04.837Z,9.84
2022-11-04T18:34:33.944Z,9.77
2022-11-04T18:37:08.162Z,9.75
2022-11-04T18:39:37.294Z,9.74
2022-11-04T18:42:05.690Z,9.76
2022-11-04T18:44:34.992Z,9.78
2022-11-04T18:47:03.251Z,9.75
2022-11-04T18:52:12.986Z,9.95
2022-11-04T18:54:43.673Z,9.95
2022-11-04T18:57:12.048Z,9.99
2022-11-04T18:59:41.329Z,9.99
2022-11-04T19:02:16.879Z,9.96
2022-11-04T19:04:44.807Z,9.97
2022-11-04T19:07:19.446Z,10.01
2022-11-04T19:09:48.181Z,10.03
2022-11-04T19:12:37.009Z,10.01
2022-11-04T19:15:07.786Z,9.94
2022-11-04T19:17:39.659Z,9.93
2022-11-04T19:20:12.114Z,9.85
2022-11-04T19:22:41.212Z,9.77
2022-11-04T19:25:12.269Z,9.70
2022-11-04T19:27:40.134Z,9.64
2022-11-04T19:30:10.454Z,9.59
2022-11-04T19:32:38.246Z,9.56
2022-11-04T19:35:06.858Z,9.57
2022-11-04T19:37:34.661Z,9.57
2022-11-04T19:40:04.689Z,9.53
2022-11-04T19:42:51.967Z,9.51
2022-11-04T19:45:22.322Z,9.52
2022-11-04T19:47:50.262Z,9.44
2022-11-04T19:50:19.814Z,9.54
2022-11-04T19:52:47.681Z,9.53
2022-11-04T19:55:15.841Z,9.59
2022-11-04T19:57:49.960Z,9.69
2022-11-04T20:00:23.812Z,9.78
2022-11-04T20:02:52.586Z,9.81
2022-11-04T20:05:26.967Z,9.88
2022-11-04T20:07:55.072Z,9.87
2022-11-04T20:10:24.414Z,9.88
2022-11-04T20:13:09.870Z,9.90
2022-11-04T20:15:42.097Z,9.91
2022-11-04T20:18:10.332Z,9.89
2022-11-04T20:20:38.427Z,9.87
2022-11-04T20:23:07.431Z,9.82
2022-11-04T20:25:35.250Z,9.72
2022-11-04T20:28:03.376Z,9.68
2022-11-04T20:30:36.567Z,9.65
2022-11-04T20:33:07.332Z,9.58
2022-11-04T20:35:35.979Z,9.49
2022-11-04T20:38:03.846Z,9.45
2022-11-04T20:40:33.873Z,9.41
2022-11-04T20:43:04.645Z,9.38
2022-11-04T20:45:32.650Z,9.34
2022-11-04T20:48:00.533Z,9.31
2022-11-04T20:50:32.418Z,9.27
2022-11-04T20:53:00.197Z,9.24
2022-11-04T20:55:29.110Z,9.22
2022-11-04T20:58:02.960Z,9.19
2022-11-04T21:00:35.168Z,9.14
2022-11-04T21:03:02.873Z,9.13
2022-11-04T21:05:32.176Z,8.91
2022-11-04T21:08:00.012Z,9.13
2022-11-04T21:10:27.774Z,9.11
2022-11-04T21:12:55.702Z,9.10
2022-11-04T21:15:41.462Z,9.07
2022-11-04T21:18:10.196Z,9.08
2022-11-04T21:20:41.872Z,9.06
2022-11-04T21:23:10.313Z,9.07
2022-11-04T21:25:42.527Z,9.06
2022-11-04T21:28:13.260Z,9.03
2022-11-04T21:30:45.362Z,9.04
2022-11-04T21:33:14.770Z,9.00
2022-11-04T21:35:44.704Z,8.96
2022-11-04T21:38:15.511Z,8.85
2022-11-04T21:40:47.238Z,8.88
2022-11-04T21:43:15.677Z,8.86
2022-11-04T21:45:43.514Z,8.82
2022-11-04T21:48:11.596Z,8.78
2022-11-04T21:50:39.466Z,8.75
2022-11-04T21:53:08.686Z,8.74
2022-11-04T21:55:39.576Z,8.73
2022-11-04T21:58:07.629Z,8.68
2022-11-04T22:00:38.889Z,8.66
2022-11-04T22:03:06.602Z,8.66
2022-11-04T22:05:34.419Z,8.60
2022-11-04T22:08:17.914Z,8.59
2022-11-04T22:10:47.085Z,8.57
2022-11-04T22:13:17.627Z,8.45
2022-11-04T22:16:02.927Z,8.54
2022-11-04T22:18:32.843Z,8.51
2022-11-04T22:21:06.973Z,8.53
2022-11-04T22:23:37.542Z,8.48
2022-11-04T22:26:08.665Z,8.49
2022-11-04T22:28:36.659Z,8.50
2022-11-04T22:31:09.067Z,8.48
2022-11-04T22:33:40.590Z,8.46
2022-11-04T22:36:09.585Z,8.44
2022-11-04T22:38:39.411Z,8.43
2022-11-04T22:41:09.912Z,8.40
2022-11-04T22:43:37.871Z,8.38
2022-11-04T22:46:09.316Z,8.33
2022-11-04T22:48:37.966Z,8.30
2022-11-04T22:51:08.005Z,8.35
2022-11-04T22:53:36.206Z,8.28
2022-11-04T22:56:05.790Z,8.30
2022-11-04T22:58:35.394Z,8.26
2022-11-04T23:01:07.879Z,8.26
2022-11-04T23:03:35.747Z,8.02
2022-11-04T23:06:05.403Z,8.24
2022-11-04T23:08:35.090Z,8.22
2022-11-04T23:11:31.255Z,8.14
2022-11-04T23:14:30.229Z,8.15
2022-11-04T23:17:19.153Z,8.10
2022-11-04T23:19:46.957Z,8.05
2022-11-04T23:22:32.629Z,8.07
2022-11-04T23:25:10.440Z,8.05
2022-11-04T23:28:02.840Z,8.02
2022-11-04T23:30:34.244Z,8.02
2022-11-04T23:33:06.871Z,8.02
2022-11-04T23:35:57.798Z,7.98
2022-11-04T23:38:26.453Z,7.93
2022-11-04T23:41:22.665Z,7.92
2022-11-04T23:43:50.515Z,7.88
2022-11-04T23:46:45.929Z,7.85
2022-11-04T23:49:31.617Z,7.81
2022-11-04T23:52:19.256Z,7.77
2022-11-04T23:55:04.490Z,7.75
2022-11-04T23:57:50.117Z,7.73
